createdAt,value
2022-11-15T00:00:09.027Z,6.52
2022-11-15T00:01:09.909Z,5.03
2022-11-15T00:02:06.791Z,4.84
2022-11-15T00:03:03.558Z,6.37
2022-11-15T00:04:00.323Z,6.18
2022-11-15T00:04:57.126Z,4.19
2022-11-15T00:05:54.064Z,6.71
2022-11-15T00:06:50.882Z,6.64
2022-11-15T00:07:55.721Z,6.72
2022-11-15T00:08:53.044Z,6.19
2022-11-15T00:09:49.815Z,6.05
2022-11-15T00:10:56.768Z,5.27
2022-11-15T00:11:53.606Z,5.22
2022-11-15T00:12:50.364Z,5.66
2022-11-15T00:13:47.035Z,5.54
2022-11-15T00:14:43.735Z,4.61
2022-11-15T00:15:42.293Z,5.80
2022-11-15T00:16:38.981Z,5.80
2022-11-15T00:17:36.881Z,5.47
2022-11-15T00:18:33.646Z,6.23
2022-11-15T00:19:30.382Z,6.58
2022-11-15T00:20:27.119Z,6.22
2022-11-15T00:21:23.857Z,5.56
2022-11-15T00:22:20.843Z,5.88
2022-11-15T00:23:17.600Z,5.70
2022-11-15T00:24:14.336Z,5.56
2022-11-15T00:25:11.046Z,5.28
2022-11-15T00:26:11.944Z,5.30
2022-11-15T00:27:08.738Z,5.45
2022-11-15T00:28:05.472Z,5.42
2022-11-15T00:29:02.262Z,5.69
2022-11-15T00:29:58.978Z,5.85
2022-11-15T00:31:02.028Z,5.34
2022-11-15T00:31:58.914Z,5.34
2022-11-15T00:32:56.334Z,5.41
2022-11-15T00:33:53.055Z,4.92
2022-11-15T00:34:49.785Z,5.13
2022-11-15T00:35:46.609Z,5.47
2022-11-15T00:36:43.360Z,5.40
2022-11-15T00:37:40.209Z,5.36
2022-11-15T00:38:39.350Z,5.41
2022-11-15T00:39:36.082Z,4.64
2022-11-15T00:40:33.471Z,5.32
2022-11-15T00:41:30.166Z,6.13
2022-11-15T00:42:26.951Z,6.05
2022-11-15T00:43:23.637Z,5.96
2022-11-15T00:44:20.403Z,5.75
2022-11-15T00:45:17.309Z,5.63
2022-11-15T00:46:14.040Z,5.38
2022-11-15T00:47:10.728Z,5.32
2022-11-15T00:48:08.160Z,5.41
2022-11-15T00:49:04.937Z,5.32
2022-11-15T00:50:01.696Z,5.44
2022-11-15T00:50:58.932Z,5.44
2022-11-15T00:51:55.657Z,4.84
2022-11-15T00:52:52.593Z,5.36
2022-11-15T00:53:49.277Z,5.27
2022-11-15T00:54:46.097Z,4.80
2022-11-15T00:55:42.917Z,5.43
2022-11-15T00:56:39.643Z,4.60
2022-11-15T00:57:36.543Z,5.38
2022-11-15T00:58:33.429Z,4.71
2022-11-15T00:59:30.149Z,5.12
2022-11-15T01:00:26.898Z,5.25
2022-11-15T01:01:23.719Z,5.43
2022-11-15T01:02:20.632Z,5.24
2022-11-15T01:03:17.420Z,4.42
2022-11-15T01:04:15.235Z,4.57
2022-11-15T01:05:11.998Z,5.40
2022-11-15T01:06:10.010Z,4.70
2022-11-15T01:07:06.939Z,5.49
2022-11-15T01:08:03.819Z,5.48
2022-11-15T01:09:00.589Z,4.98
2022-11-15T01:09:57.349Z,5.74
2022-11-15T01:10:54.064Z,5.69
2022-11-15T01:11:50.829Z,5.70
2022-11-15T01:12:47.795Z,5.62
2022-11-15T01:13:44.523Z,5.39
2022-11-15T01:14:41.280Z,5.21
2022-11-15T01:15:41.902Z,5.48
2022-11-15T01:16:38.634Z,5.39
2022-11-15T01:17:35.354Z,5.12
2022-11-15T01:18:32.068Z,5.31
2022-11-15T01:19:28.821Z,5.30
2022-11-15T01:20:25.594Z,5.49
2022-11-15T01:21:22.476Z,5.83
2022-11-15T01:22:19.384Z,6.30
2022-11-15T01:23:16.146Z,5.80
2022-11-15T01:24:14.088Z,5.67
2022-11-15T01:25:10.808Z,5.59
2022-11-15T01:26:10.685Z,5.48
2022-11-15T01:27:07.740Z,5.31
2022-11-15T01:28:04.591Z,5.45
2022-11-15T01:29:01.450Z,4.77
2022-11-15T01:29:58.189Z,5.55
2022-11-15T01:30:54.905Z,5.30
2022-11-15T01:31:53.534Z,5.49
2022-11-15T01:32:50.325Z,4.47
2022-11-15T01:33:48.560Z,5.55
2022-11-15T01:34:45.558Z,5.55
2022-11-15T01:35:42.263Z,5.73
2022-11-15T01:36:38.997Z,5.87
2022-11-15T01:37:35.853Z,6.30
2022-11-15T01:38:32.623Z,6.46
2022-11-15T01:39:29.336Z,6.37
2022-11-15T01:40:26.190Z,6.38
2022-11-15T01:41:26.700Z,6.27
2022-11-15T01:42:23.445Z,6.26
2022-11-15T01:43:24.712Z,6.64
2022-11-15T01:44:40.857Z,6.15
2022-11-15T01:45:37.765Z,5.35
2022-11-15T01:46:39.592Z,5.07
2022-11-15T01:47:41.593Z,5.61
2022-11-15T01:48:38.385Z,4.90
2022-11-15T01:49:40.752Z,4.29
2022-11-15T01:50:37.573Z,4.20
2022-11-15T01:51:34.742Z,4.98
2022-11-15T01:52:36.722Z,5.34
2022-11-15T01:53:38.267Z,5.04
2022-11-15T01:54:35.480Z,6.08
2022-11-15T01:55:33.545Z,4.75
2022-11-15T01:56:37.053Z,5.54
2022-11-15T01:57:34.149Z,5.33
2022-11-15T01:58:31.422Z,4.17
2022-11-15T01:59:29.151Z,5.21
2022-11-15T02:00:25.872Z,5.12
2022-11-15T02:01:26.803Z,4.70
2022-11-15T02:02:23.703Z,5.16
2022-11-15T02:03:27.375Z,4.18
2022-11-15T02:04:28.797Z,5.37
2022-11-15T02:05:26.070Z,5.30
2022-11-15T02:06:23.577Z,5.32
2022-11-15T02:07:23.382Z,4.91
2022-11-15T02:08:22.890Z,5.28
2022-11-15T02:09:20.123Z,5.31
2022-11-15T02:10:21.336Z,5.21
2022-11-15T02:11:18.204Z,6.14
2022-11-15T02:12:22.306Z,5.91
2022-11-15T02:13:19.153Z,4.19
2022-11-15T02:14:20.295Z,5.42
2022-11-15T02:15:17.642Z,5.33
2022-11-15T02:16:39.085Z,5.27
2022-11-15T02:17:54.443Z,5.08
2022-11-15T02:19:10.115Z,4.50
2022-11-15T02:20:27.188Z,6.39
2022-11-15T02:21:54.641Z,6.55
2022-11-15T02:23:29.902Z,6.28
2022-11-15T02:24:45.291Z,6.19
2022-11-15T02:26:00.561Z,6.07
2022-11-15T02:27:18.308Z,5.77
2022-11-15T02:28:59.718Z,6.27
2022-11-15T02:30:05.216Z,6.53
2022-11-15T02:31:52.774Z,6.43
2022-11-15T02:33:15.603Z,6.17
2022-11-15T02:34:18.503Z,5.95
2022-11-15T02:35:46.788Z,5.54
2022-11-15T02:36:51.404Z,5.68
2022-11-15T02:37:57.914Z,5.66
2022-11-15T02:39:13.469Z,6.33
2022-11-15T02:40:29.281Z,6.39
2022-11-15T02:41:39.573Z,5.79
2022-11-15T02:43:27.623Z,5.89
2022-11-15T02:44:46.057Z,6.26
2022-11-15T02:45:52.826Z,5.52
2022-11-15T02:47:13.584Z,5.09
2022-11-15T02:48:13.113Z,5.49
2022-11-15T02:49:12.752Z,5.30
2022-11-15T02:50:13.912Z,5.67
2022-11-15T02:51:12.658Z,5.79
2022-11-15T02:52:09.455Z,5.46
2022-11-15T02:53:06.258Z,5.03
2022-11-15T02:54:03.002Z,5.03
2022-11-15T02:55:01.637Z,4.67
2022-11-15T02:55:59.109Z,5.44
2022-11-15T02:57:12.017Z,5.35
2022-11-15T02:58:33.939Z,5.87
2022-11-15T02:59:30.556Z,6.03
2022-11-15T03:00:46.309Z,4.00
2022-11-15T03:01:52.179Z,5.09
2022-11-15T03:03:06.868Z,4.73
2022-11-15T03:04:56.063Z,4.50
2022-11-15T03:06:09.190Z,5.59
2022-11-15T03:07:17.173Z,5.84
2022-11-15T03:08:29.106Z,6.23
2022-11-15T03:10:02.716Z,5.68
2022-11-15T03:11:02.292Z,6.27
2022-11-15T03:12:12.816Z,6.35
2022-11-15T03:13:30.373Z,6.51
2022-11-15T03:14:48.868Z,6.49
2022-11-15T03:16:00.260Z,6.00
2022-11-15T03:17:21.868Z,6.24
2022-11-15T03:18:39.771Z,5.39
2022-11-15T03:19:42.128Z,6.62
2022-11-15T03:20:39.494Z,6.36
2022-11-15T03:21:41.289Z,6.04
2022-11-15T03:22:43.465Z,5.15
2022-11-15T03:23:42.643Z,5.23
2022-11-15T03:24:40.341Z,5.30
2022-11-15T03:25:43.949Z,5.38
2022-11-15T03:26:44.416Z,6.06
2022-11-15T03:27:49.403Z,6.22
2022-11-15T03:28:58.140Z,6.18
2022-11-15T03:30:02.676Z,6.48
2022-11-15T03:31:24.600Z,6.36
2022-11-15T03:32:29.051Z,5.33
2022-11-15T03:33:28.710Z,5.94
2022-11-15T03:34:56.776Z,6.14
2022-11-15T03:35:55.792Z,6.20
2022-11-15T03:36:53.829Z,6.78
2022-11-15T03:37:56.159Z,6.96
2022-11-15T03:39:00.788Z,6.73
2022-11-15T03:39:57.674Z,5.67
2022-11-15T03:41:05.037Z,6.86
2022-11-15T03:42:13.990Z,6.96
2022-11-15T03:43:23.939Z,6.74
2022-11-15T03:44:33.494Z,6.46
2022-11-15T03:45:41.477Z,5.84
2022-11-15T03:47:02.978Z,4.31
2022-11-15T03:48:28.056Z,6.44
2022-11-15T03:49:35.218Z,6.58
2022-11-15T03:50:33.313Z,6.33
2022-11-15T03:51:31.012Z,5.54
2022-11-15T03:52:34.779Z,5.92
2022-11-15T03:53:33.006Z,4.78
2022-11-15T03:54:29.914Z,5.99
2022-11-15T03:55:26.674Z,5.73
2022-11-15T03:56:23.426Z,6.66
2022-11-15T03:57:20.616Z,6.64
2022-11-15T03:58:17.404Z,5.99
2022-11-15T03:59:14.088Z,7.23
2022-11-15T04:00:12.083Z,7.10
2022-11-15T04:01:08.906Z,6.52
2022-11-15T04:02:05.704Z,6.50
2022-11-15T04:03:02.535Z,5.98
2022-11-15T04:03:59.192Z,5.39
2022-11-15T04:04:55.921Z,5.71
2022-11-15T04:05:52.784Z,6.06
2022-11-15T04:06:49.503Z,6.30
2022-11-15T04:07:46.406Z,6.30
2022-11-15T04:08:43.490Z,7.13
2022-11-15T04:10:00.176Z,7.24
2022-11-15T04:10:56.931Z,6.27
2022-11-15T04:11:53.649Z,6.99
2022-11-15T04:12:50.434Z,5.29
2022-11-15T04:13:47.120Z,5.18
2022-11-15T04:15:03.762Z,4.22
2022-11-15T04:16:00.504Z,5.65
2022-11-15T04:16:57.268Z,5.95
2022-11-15T04:17:55.944Z,6.05
2022-11-15T04:19:12.622Z,5.92
2022-11-15T04:20:37.724Z,6.25
2022-11-15T04:21:53.188Z,6.35
2022-11-15T04:23:08.654Z,6.22
2022-11-15T04:24:05.641Z,6.04
2022-11-15T04:25:02.410Z,5.67
2022-11-15T04:26:03.880Z,6.05
2022-11-15T04:27:01.405Z,5.88
2022-11-15T04:27:58.156Z,6.60
2022-11-15T04:29:13.304Z,6.36
2022-11-15T04:30:10.375Z,4.94
2022-11-15T04:31:07.079Z,5.82
2022-11-15T04:32:06.812Z,6.13
2022-11-15T04:33:04.265Z,6.25
2022-11-15T04:34:00.993Z,6.50
2022-11-15T04:34:57.718Z,6.30
2022-11-15T04:36:12.973Z,6.13
2022-11-15T04:37:17.084Z,5.89
2022-11-15T04:38:13.821Z,5.50
2022-11-15T04:39:10.735Z,5.61
2022-11-15T04:40:08.371Z,6.32
2022-11-15T04:41:05.474Z,6.01
2022-11-15T04:42:02.245Z,6.16
2022-11-15T04:43:03.613Z,6.84
2022-11-15T04:44:00.939Z,6.67
2022-11-15T04:44:57.646Z,5.53
2022-11-15T04:45:54.381Z,6.40
2022-11-15T04:46:51.111Z,6.16
2022-11-15T04:47:48.640Z,6.03
2022-11-15T04:48:45.354Z,4.71
2022-11-15T04:49:42.220Z,5.82
2022-11-15T04:50:38.977Z,4.71
2022-11-15T04:51:35.728Z,5.82
2022-11-15T04:52:32.486Z,5.91
2022-11-15T04:53:29.490Z,4.61
2022-11-15T04:54:26.672Z,5.99
2022-11-15T04:55:23.369Z,5.80
2022-11-15T04:56:20.271Z,5.67
2022-11-15T04:57:17.041Z,5.96
2022-11-15T04:58:13.967Z,5.97
2022-11-15T04:59:10.690Z,4.86
2022-11-15T05:00:10.867Z,5.93
2022-11-15T05:01:15.463Z,6.06
2022-11-15T05:02:12.273Z,5.81
2022-11-15T05:03:28.953Z,5.60
2022-11-15T05:04:25.806Z,5.45
2022-11-15T05:05:24.425Z,5.38
2022-11-15T05:06:21.477Z,5.76
2022-11-15T05:07:18.280Z,5.53
2022-11-15T05:08:15.096Z,5.87
2022-11-15T05:09:13.997Z,5.77
2022-11-15T05:10:10.773Z,5.90
2022-11-15T05:11:07.593Z,5.85
2022-11-15T05:12:04.417Z,6.28
2022-11-15T05:13:01.161Z,5.92
2022-11-15T05:13:57.981Z,5.63
2022-11-15T05:14:54.734Z,6.47
2022-11-15T05:15:51.521Z,6.27
2022-11-15T05:16:48.225Z,5.78
2022-11-15T05:17:45.015Z,4.88
2022-11-15T05:18:41.854Z,6.27
2022-11-15T05:19:39.494Z,5.50
2022-11-15T05:20:36.424Z,5.58
2022-11-15T05:21:34.653Z,5.17
2022-11-15T05:22:31.424Z,5.84
2022-11-15T05:23:28.272Z,5.99
2022-11-15T05:24:25.085Z,5.96
2022-11-15T05:25:22.757Z,6.32
2022-11-15T05:26:20.057Z,6.32
2022-11-15T05:27:16.858Z,6.23
2022-11-15T05:28:14.325Z,5.86
2022-11-15T05:29:12.153Z,5.86
2022-11-15T05:30:09.366Z,5.76
2022-11-15T05:31:09.099Z,5.86
2022-11-15T05:32:09.399Z,6.14
2022-11-15T05:33:06.093Z,5.29
2022-11-15T05:34:06.455Z,5.24
2022-11-15T05:35:06.452Z,5.75
2022-11-15T05:36:32.313Z,6.43
2022-11-15T05:37:30.728Z,6.07
2022-11-15T05:38:27.606Z,5.58
2022-11-15T05:39:24.444Z,5.12
2022-11-15T05:40:21.331Z,5.22
2022-11-15T05:41:30.919Z,5.45
2022-11-15T05:42:29.104Z,5.51
2022-11-15T05:43:26.061Z,5.07
2022-11-15T05:44:24.542Z,5.28
2022-11-15T05:45:26.493Z,4.22
2022-11-15T05:46:23.895Z,5.17
2022-11-15T05:47:26.187Z,3.55
2022-11-15T05:48:22.976Z,5.16
2022-11-15T05:49:28.155Z,4.98
2022-11-15T05:50:27.578Z,5.32
2022-11-15T05:51:24.794Z,5.38
2022-11-15T05:52:28.668Z,5.31
2022-11-15T05:53:27.294Z,5.43
2022-11-15T05:54:26.357Z,5.64
2022-11-15T05:55:23.631Z,3.19
2022-11-15T05:56:20.678Z,4.12
2022-11-15T05:57:18.321Z,4.78
2022-11-15T05:58:15.181Z,5.60
2022-11-15T05:59:12.686Z,4.56
2022-11-15T06:00:11.567Z,5.38
2022-11-15T06:01:08.723Z,5.35
2022-11-15T06:02:05.497Z,5.78
2022-11-15T06:03:02.245Z,5.33
2022-11-15T06:03:58.951Z,5.83
2022-11-15T06:04:55.683Z,5.60
2022-11-15T06:05:52.415Z,4.15
2022-11-15T06:06:52.334Z,5.27
2022-11-15T06:07:49.172Z,5.73
2022-11-15T06:08:46.121Z,6.20
2022-11-15T06:09:42.862Z,5.31
2022-11-15T06:10:42.410Z,5.90
2022-11-15T06:11:42.339Z,5.66
2022-11-15T06:12:39.069Z,5.76
2022-11-15T06:13:35.955Z,3.54
2022-11-15T06:14:35.820Z,6.49
2022-11-15T06:15:35.642Z,6.52
2022-11-15T06:16:32.410Z,6.61
2022-11-15T06:17:32.099Z,6.41
2022-11-15T06:18:28.855Z,5.58
2022-11-15T06:19:28.416Z,6.00
2022-11-15T06:20:30.134Z,5.09
2022-11-15T06:21:29.065Z,5.65
2022-11-15T06:22:26.006Z,4.42
2022-11-15T06:23:22.771Z,3.86
2022-11-15T06:24:22.710Z,4.79
2022-11-15T06:25:22.090Z,4.33
2022-11-15T06:26:18.993Z,5.44
2022-11-15T06:27:16.466Z,4.88
2022-11-15T06:28:15.159Z,4.93
2022-11-15T06:29:11.875Z,4.13
2022-11-15T06:30:11.876Z,4.92
2022-11-15T06:31:17.937Z,3.98
2022-11-15T06:32:14.811Z,5.08
2022-11-15T06:33:11.668Z,5.27
2022-11-15T06:34:08.498Z,5.69
2022-11-15T06:35:08.579Z,4.61
2022-11-15T06:36:10.888Z,6.11
2022-11-15T06:37:14.362Z,5.83
2022-11-15T06:38:14.571Z,5.26
2022-11-15T06:39:13.696Z,4.63
2022-11-15T06:40:13.562Z,3.99
2022-11-15T06:41:14.479Z,4.54
2022-11-15T06:42:11.248Z,5.26
2022-11-15T06:43:08.729Z,4.11
2022-11-15T06:44:07.800Z,4.92
2022-11-15T06:45:08.009Z,4.95
2022-11-15T06:46:06.552Z,5.87
2022-11-15T06:47:06.797Z,5.92
2022-11-15T06:48:03.750Z,5.50
2022-11-15T06:49:08.346Z,4.96
2022-11-15T06:50:09.886Z,2.78
2022-11-15T06:51:11.976Z,5.11
2022-11-15T06:52:12.027Z,5.33
2022-11-15T06:53:08.774Z,5.29
2022-11-15T06:54:05.600Z,5.77
2022-11-15T06:55:05.039Z,5.06
2022-11-15T06:56:07.309Z,3.74
2022-11-15T06:57:09.547Z,4.47
2022-11-15T06:58:11.337Z,5.91
2022-11-15T06:59:10.283Z,5.88
2022-11-15T07:00:13.896Z,5.83
2022-11-15T07:01:18.768Z,4.83
2022-11-15T07:02:15.612Z,6.08
2022-11-15T07:03:12.701Z,5.99
2022-11-15T07:04:09.613Z,6.08
2022-11-15T07:05:06.891Z,6.10
2022-11-15T07:06:07.375Z,5.27
2022-11-15T07:07:04.735Z,5.89
2022-11-15T07:08:02.164Z,5.83
2022-11-15T07:08:58.895Z,6.15
2022-11-15T07:09:55.620Z,5.75
2022-11-15T07:10:52.581Z,6.81
2022-11-15T07:11:49.282Z,6.83
2022-11-15T07:12:49.862Z,7.29
2022-11-15T07:13:46.696Z,6.38
2022-11-15T07:14:43.452Z,7.62
2022-11-15T07:15:40.262Z,6.47
2022-11-15T07:16:38.463Z,6.90
2022-11-15T07:17:35.201Z,6.87
2022-11-15T07:18:32.014Z,6.18
2022-11-15T07:19:28.783Z,6.49
2022-11-15T07:20:25.507Z,6.27
2022-11-15T07:21:26.317Z,6.24
2022-11-15T07:22:24.342Z,6.29
2022-11-15T07:23:21.065Z,5.84
2022-11-15T07:24:17.801Z,6.12
2022-11-15T07:25:14.845Z,4.84
2022-11-15T07:26:11.756Z,6.08
2022-11-15T07:27:08.616Z,5.88
2022-11-15T07:28:06.063Z,6.00
2022-11-15T07:29:03.318Z,5.97
2022-11-15T07:30:00.113Z,5.40
2022-11-15T07:30:57.012Z,4.55
2022-11-15T07:31:53.911Z,5.95
2022-11-15T07:33:01.712Z,6.04
2022-11-15T07:33:58.441Z,4.25
2022-11-15T07:34:55.179Z,4.47
2022-11-15T07:35:51.981Z,5.77
2022-11-15T07:36:48.744Z,5.91
2022-11-15T07:37:45.525Z,5.90
2022-11-15T07:38:43.187Z,5.51
2022-11-15T07:39:40.151Z,6.12
2022-11-15T07:40:36.953Z,5.93
2022-11-15T07:41:33.712Z,5.06
2022-11-15T07:42:51.179Z,5.16
2022-11-15T07:43:48.075Z,4.70
2022-11-15T07:44:44.884Z,5.84
2022-11-15T07:45:46.286Z,6.08
2022-11-15T07:46:43.087Z,6.22
2022-11-15T07:47:39.908Z,5.82
2022-11-15T07:48:45.374Z,5.35
2022-11-15T07:49:42.458Z,5.04
2022-11-15T07:50:43.217Z,5.69
2022-11-15T07:51:39.979Z,5.96
2022-11-15T07:52:36.800Z,6.15
2022-11-15T07:53:34.181Z,6.42
2022-11-15T07:54:31.152Z,6.57
2022-11-15T07:55:30.669Z,6.27
2022-11-15T07:56:27.514Z,6.47
2022-11-15T07:57:24.277Z,5.34
2022-11-15T07:58:20.994Z,5.95
2022-11-15T07:59:17.774Z,5.96
2022-11-15T08:00:15.566Z,6.28
2022-11-15T08:01:12.522Z,6.57
2022-11-15T08:02:10.896Z,6.66
2022-11-15T08:03:17.080Z,5.94
2022-11-15T08:04:13.941Z,6.70
2022-11-15T08:05:10.658Z,5.35
2022-11-15T08:06:07.474Z,6.38
2022-11-15T08:07:04.208Z,5.79
2022-11-15T08:08:00.965Z,6.49
2022-11-15T08:08:57.757Z,5.88
2022-11-15T08:09:55.659Z,6.90
2022-11-15T08:10:53.328Z,6.95
2022-11-15T08:11:50.035Z,6.15
2022-11-15T08:12:46.842Z,7.24
2022-11-15T08:13:43.610Z,7.00
2022-11-15T08:14:40.305Z,7.63
2022-11-15T08:15:38.045Z,7.38
2022-11-15T08:16:34.742Z,7.64
2022-11-15T08:17:33.817Z,6.81
2022-11-15T08:18:30.635Z,5.65
2022-11-15T08:19:27.441Z,2.64
2022-11-15T08:20:25.835Z,7.20
2022-11-15T08:21:23.472Z,6.81
2022-11-15T08:22:20.623Z,7.11
2022-11-15T08:23:17.338Z,5.65
2022-11-15T08:24:14.374Z,6.57
2022-11-15T08:25:11.156Z,6.66
2022-11-15T08:26:07.946Z,6.48
2022-11-15T08:27:04.784Z,6.45
2022-11-15T08:28:05.483Z,6.73
2022-11-15T08:29:02.282Z,6.87
2022-11-15T08:29:59.692Z,6.27
2022-11-15T08:30:56.503Z,6.44
2022-11-15T08:31:56.054Z,6.30
2022-11-15T08:32:54.337Z,6.60
2022-11-15T08:33:51.148Z,6.50
2022-11-15T08:34:47.842Z,5.46
2022-11-15T08:35:45.815Z,6.50
2022-11-15T08:36:45.939Z,6.97
2022-11-15T08:37:43.063Z,7.29
2022-11-15T08:38:39.805Z,7.13
2022-11-15T08:39:36.545Z,7.20
2022-11-15T08:40:33.371Z,7.35
2022-11-15T08:41:36.864Z,6.94
2022-11-15T08:42:34.319Z,7.45
2022-11-15T08:43:31.995Z,7.33
2022-11-15T08:44:28.933Z,8.13
2022-11-15T08:45:25.644Z,8.23
2022-11-15T08:46:22.422Z,7.61
2022-11-15T08:47:19.196Z,7.63
2022-11-15T08:48:15.897Z,7.51
2022-11-15T08:49:12.664Z,7.80
2022-11-15T08:50:09.735Z,8.13
2022-11-15T08:51:07.115Z,8.61
2022-11-15T08:52:04.318Z,8.73
2022-11-15T08:53:09.553Z,8.98
2022-11-15T08:54:06.355Z,7.91
2022-11-15T08:55:03.467Z,8.96
2022-11-15T08:56:00.358Z,8.83
2022-11-15T08:56:57.082Z,8.73
2022-11-15T08:57:53.874Z,7.12
2022-11-15T08:58:50.720Z,7.99
2022-11-15T08:59:47.548Z,7.98
2022-11-15T09:00:44.409Z,8.23
2022-11-15T09:01:41.187Z,8.20
2022-11-15T09:02:41.732Z,7.11
2022-11-15T09:03:41.324Z,6.54
2022-11-15T09:04:38.152Z,6.78
2022-11-15T09:05:37.920Z,7.16
2022-11-15T09:06:34.765Z,7.06
2022-11-15T09:07:37.483Z,7.90
2022-11-15T09:08:47.602Z,8.44
2022-11-15T09:09:45.357Z,8.50
2022-11-15T09:10:42.163Z,8.54
2022-11-15T09:11:38.927Z,7.67
2022-11-15T09:12:36.255Z,7.38
2022-11-15T09:13:33.276Z,7.72
2022-11-15T09:14:30.301Z,7.53
2022-11-15T09:15:27.220Z,6.42
2022-11-15T09:16:24.087Z,7.69
2022-11-15T09:17:24.647Z,6.80
2022-11-15T09:18:23.413Z,7.87
2022-11-15T09:19:20.328Z,6.78
2022-11-15T09:20:17.366Z,8.08
2022-11-15T09:21:14.901Z,7.82
2022-11-15T09:22:11.816Z,4.88
2022-11-15T09:23:08.791Z,7.52
2022-11-15T09:24:05.876Z,7.42
2022-11-15T09:25:03.809Z,6.04
2022-11-15T09:26:04.363Z,7.15
2022-11-15T09:29:41.422Z,8.38
2022-11-15T09:30:38.156Z,8.08
2022-11-15T09:31:35.091Z,7.83
2022-11-15T09:32:37.876Z,7.92
2022-11-15T09:33:36.985Z,9.03
2022-11-15T09:34:33.812Z,8.99
2022-11-15T09:35:30.600Z,8.91
2022-11-15T09:36:27.550Z,7.98
2022-11-15T09:37:24.373Z,9.10
2022-11-15T09:38:21.652Z,8.43
2022-11-15T09:39:18.368Z,8.35
2022-11-15T09:40:18.521Z,8.47
2022-11-15T09:41:15.558Z,8.59
2022-11-15T09:42:43.097Z,9.11
2022-11-15T09:44:26.502Z,8.62
2022-11-15T09:45:37.552Z,7.05
2022-11-15T09:47:18.511Z,7.38
2022-11-15T09:48:49.450Z,7.90
2022-11-15T09:49:51.642Z,7.24
2022-11-15T09:50:54.411Z,7.94
2022-11-15T09:51:54.953Z,8.02
2022-11-15T09:52:51.693Z,7.48
2022-11-15T09:55:22.379Z,8.77
2022-11-15T09:56:23.591Z,8.40
2022-11-15T09:57:38.098Z,9.02
2022-11-15T09:59:02.212Z,8.34
2022-11-15T10:02:09.592Z,8.69
2022-11-15T10:03:28.235Z,8.59
2022-11-15T10:04:26.914Z,7.97
2022-11-15T10:05:26.502Z,6.62
2022-11-15T10:06:27.142Z,7.62
2022-11-15T10:08:01.929Z,8.02
2022-11-15T10:09:12.291Z,8.34
2022-11-15T10:10:41.239Z,7.55
2022-11-15T10:11:53.906Z,7.77
2022-11-15T10:12:59.930Z,7.91
2022-11-15T10:14:03.027Z,8.57
2022-11-15T10:15:06.427Z,8.82
2022-11-15T10:16:27.796Z,8.67
2022-11-15T10:17:35.460Z,9.59
2022-11-15T10:19:12.706Z,9.49
2022-11-15T10:20:32.957Z,9.60
2022-11-15T10:21:53.338Z,7.59
2022-11-15T10:23:15.361Z,6.98
2022-11-15T10:24:20.931Z,8.60
2022-11-15T10:25:31.123Z,6.18
2022-11-15T10:26:29.289Z,9.03
2022-11-15T10:27:31.850Z,8.08
2022-11-15T10:28:37.524Z,7.50
2022-11-15T10:29:36.784Z,8.59
2022-11-15T10:31:03.600Z,9.67
2022-11-15T10:32:00.575Z,9.69
2022-11-15T10:32:57.293Z,9.95
2022-11-15T10:34:14.295Z,9.56
2022-11-15T10:35:33.506Z,9.60
2022-11-15T10:36:32.669Z,8.28
2022-11-15T10:37:34.579Z,8.49
2022-11-15T10:38:34.528Z,8.13
2022-11-15T10:42:29.195Z,9.97
2022-11-15T10:43:27.221Z,7.98
2022-11-15T10:44:25.821Z,8.88
2022-11-15T10:45:27.964Z,8.62
2022-11-15T10:46:45.586Z,8.11
2022-11-15T10:47:48.332Z,7.72
2022-11-15T10:48:51.528Z,8.93
2022-11-15T10:50:33.981Z,9.70
2022-11-15T10:51:30.990Z,10.10
2022-11-15T10:52:31.874Z,9.55
2022-11-15T10:53:36.384Z,9.47
2022-11-15T10:54:44.158Z,9.05
2022-11-15T10:55:42.285Z,8.61
2022-11-15T10:56:42.092Z,8.82
2022-11-15T10:57:55.261Z,9.18
2022-11-15T10:58:58.628Z,9.71
2022-11-15T11:00:02.848Z,9.89
2022-11-15T11:01:28.975Z,10.11
2022-11-15T11:02:45.072Z,9.97
2022-11-15T11:03:44.490Z,9.83
2022-11-15T11:04:59.365Z,9.92
2022-11-15T11:06:15.335Z,9.55
2022-11-15T11:07:24.438Z,9.80
2022-11-15T11:08:25.902Z,9.41
2022-11-15T11:09:32.657Z,9.51
2022-11-15T11:11:53.419Z,8.97
2022-11-15T11:12:50.180Z,8.97
2022-11-15T11:13:54.996Z,8.67
2022-11-15T11:15:14.115Z,8.87
2022-11-15T11:16:15.412Z,8.99
2022-11-15T11:17:36.298Z,8.95
2022-11-15T11:18:47.413Z,8.82
2022-11-15T11:20:15.309Z,8.79
2022-11-15T11:21:24.486Z,8.47
2022-11-15T11:22:47.788Z,9.43
2022-11-15T11:24:19.833Z,8.71
2022-11-15T11:25:16.595Z,7.35
2022-11-15T11:27:01.378Z,9.42
2022-11-15T11:28:01.064Z,9.38
2022-11-15T11:29:34.552Z,9.24
2022-11-15T11:30:42.553Z,9.19
2022-11-15T11:32:18.809Z,9.43
2022-11-15T11:33:48.564Z,9.87
2022-11-15T11:35:05.657Z,9.57
2022-11-15T11:36:24.108Z,9.36
2022-11-15T11:37:39.272Z,9.64
2022-11-15T11:38:57.305Z,9.83
2022-11-15T11:40:19.648Z,7.87
2022-11-15T11:41:39.918Z,10.13
2022-11-15T11:43:03.062Z,10.03
2022-11-15T11:44:29.068Z,10.19
2022-11-15T11:45:47.471Z,10.25
2022-11-15T11:46:56.183Z,10.14
2022-11-15T11:48:10.261Z,10.23
2022-11-15T11:49:14.140Z,10.17
2022-11-15T11:50:29.636Z,8.86
2022-11-15T11:51:45.301Z,8.56
2022-11-15T11:53:04.527Z,9.89
2022-11-15T11:54:49.963Z,9.45
2022-11-15T11:56:04.789Z,8.83
2022-11-15T11:57:26.398Z,9.96
2022-11-15T11:58:29.076Z,10.04
2022-11-15T12:00:21.947Z,10.29
2022-11-15T12:01:50.164Z,9.66
2022-11-15T12:03:31.110Z,7.83
2022-11-15T12:04:39.588Z,10.25
2022-11-15T12:05:40.495Z,9.77
2022-11-15T12:07:03.227Z,9.74
2022-11-15T12:08:16.436Z,9.99
2022-11-15T12:09:18.883Z,9.98
2022-11-15T12:10:30.981Z,9.49
2022-11-15T12:11:42.903Z,9.83
2022-11-15T12:12:50.326Z,9.53
2022-11-15T12:13:51.669Z,8.91
2022-11-15T12:15:22.108Z,10.11
2022-11-15T12:16:28.976Z,10.36
2022-11-15T12:17:33.006Z,10.17
2022-11-15T12:18:30.822Z,9.98
2022-11-15T12:19:30.695Z,8.83
2022-11-15T12:20:37.011Z,8.94
2022-11-15T12:21:59.705Z,10.14
2022-11-15T12:23:20.936Z,10.32
2022-11-15T12:24:56.793Z,9.79
2022-11-15T12:26:05.246Z,9.85
2022-11-15T12:27:05.657Z,10.06
2022-11-15T12:28:18.752Z,10.02
2022-11-15T12:29:40.693Z,10.11
2022-11-15T12:30:55.755Z,10.02
2022-11-15T12:31:57.970Z,10.21
2022-11-15T12:33:02.866Z,9.88
2022-11-15T12:34:04.380Z,9.29
2022-11-15T12:35:07.476Z,10.01
2022-11-15T12:36:13.585Z,10.11
2022-11-15T12:37:41.576Z,9.97
2022-11-15T12:39:05.738Z,9.73
2022-11-15T12:40:19.237Z,10.19
2022-11-15T12:41:19.032Z,10.50
2022-11-15T12:42:15.705Z,10.17
2022-11-15T12:43:15.288Z,9.84
2022-11-15T12:44:34.057Z,10.05
2022-11-15T12:45:35.827Z,10.28
2022-11-15T12:46:32.568Z,10.09
2022-11-15T12:47:29.398Z,9.73
2022-11-15T12:48:26.066Z,10.07
2022-11-15T12:49:28.734Z,10.22
2022-11-15T12:50:54.742Z,10.28
2022-11-15T12:51:52.950Z,10.10
2022-11-15T12:53:24.858Z,10.04
2022-11-15T12:54:24.243Z,9.93
2022-11-15T12:55:33.357Z,9.89
2022-11-15T12:56:30.140Z,9.99
2022-11-15T12:57:33.631Z,9.81
2022-11-15T12:58:46.833Z,9.58
2022-11-15T12:59:59.834Z,10.22
2022-11-15T13:00:56.685Z,10.35
2022-11-15T13:01:58.667Z,9.75
2022-11-15T13:03:24.247Z,10.46
2022-11-15T13:04:21.074Z,10.63
2022-11-15T13:05:20.712Z,10.33
2022-11-15T13:06:42.405Z,10.54
2022-11-15T13:07:42.142Z,10.37
2022-11-15T13:08:40.110Z,10.31
2022-11-15T13:09:36.808Z,10.32
2022-11-15T13:10:34.989Z,10.15
2022-11-15T13:11:49.909Z,9.81
2022-11-15T13:12:46.609Z,10.32
2022-11-15T13:13:46.323Z,10.30
2022-11-15T13:14:55.274Z,10.29
2022-11-15T13:16:00.707Z,10.05
2022-11-15T13:17:00.736Z,9.57
2022-11-15T13:17:58.005Z,9.67
2022-11-15T13:18:55.805Z,9.80
2022-11-15T13:20:07.612Z,10.31
2022-11-15T13:21:38.023Z,10.35
2022-11-15T13:22:52.597Z,10.58
2022-11-15T13:23:54.459Z,10.43
2022-11-15T13:24:51.162Z,10.56
2022-11-15T13:26:07.607Z,10.04
2022-11-15T13:27:16.831Z,9.38
2022-11-15T13:28:16.528Z,10.09
2022-11-15T13:29:21.492Z,10.09
2022-11-15T13:30:29.035Z,9.22
2022-11-15T13:31:37.021Z,10.33
2022-11-15T13:32:33.889Z,10.01
2022-11-15T13:33:40.097Z,10.03
2022-11-15T13:34:51.465Z,10.20
2022-11-15T13:35:53.703Z,10.47
2022-11-15T13:36:50.653Z,10.07
2022-11-15T13:37:47.536Z,10.28
2022-11-15T13:38:45.724Z,9.44
2022-11-15T13:40:11.018Z,9.72
2022-11-15T13:41:22.756Z,9.89
2022-11-15T13:42:21.909Z,10.30
2022-11-15T13:43:32.782Z,10.23
2022-11-15T13:44:34.483Z,9.91
2022-11-15T13:45:31.501Z,10.07
2022-11-15T13:46:35.169Z,10.16
2022-11-15T13:47:32.770Z,9.84
2022-11-15T13:48:31.187Z,8.74
2022-11-15T13:49:33.582Z,9.79
2022-11-15T13:50:37.639Z,7.21
2022-11-15T13:51:40.177Z,9.79
2022-11-15T13:52:41.585Z,9.97
2022-11-15T13:53:44.159Z,10.07
2022-11-15T13:54:47.447Z,10.24
2022-11-15T13:55:44.437Z,9.30
2022-11-15T13:56:46.815Z,9.77
2022-11-15T13:57:52.286Z,9.29
2022-11-15T13:58:49.216Z,10.06
2022-11-15T14:00:03.281Z,10.27
2022-11-15T14:01:04.079Z,10.09
2022-11-15T14:02:13.473Z,10.14
2022-11-15T14:03:25.573Z,10.16
2022-11-15T14:04:26.405Z,9.87